sensor_id;sensor_type;location;lat;lon;timestamp;P1;durP1;ratioP1;P2;durP2;ratioP2
33268;SDS011;19640;50.944;5.260;2023-03-13T00:00:19;10.10;;;2.03;;
33268;SDS011;19640;50.944;5.260;2023-03-13T00:02:45;15.65;;;2.10;;
33268;SDS011;19640;50.944;5.260;2023-03-13T00:05:11;12.25;;;2.42;;
33268;SDS011;19640;50.944;5.260;2023-03-13T00:07:37;12.60;;;2.42;;
33268;SDS011;19640;50.944;5.260;2023-03-13T00:10:03;17.73;;;3.35;;
33268;SDS011;19640;50.944;5.260;2023-03-13T00:12:30;9.60;;;1.90;;
33268;SDS011;19640;50.944;5.260;2023-03-13T00:14:56;9.60;;;1.98;;
33268;SDS011;19640;50.944;5.260;2023-03-13T00:17:21;7.22;;;2.10;;
33268;SDS011;19640;50.944;5.260;2023-03-13T00:19:47;10.73;;;2.50;;
33268;SDS011;19640;50.944;5.260;2023-03-13T00:22:14;13.13;;;2.17;;
33268;SDS011;19640;50.944;5.260;2023-03-13T00:24:40;11.77;;;2.30;;
33268;SDS011;19640;50.944;5.260;2023-03-13T00:27:05;12.77;;;2.35;;
33268;SDS011;19640;50.944;5.260;2023-03-13T00:29:31;8.93;;;1.90;;
33268;SDS011;19640;50.944;5.260;2023-03-13T00:31:59;13.43;;;2.30;;
33268;SDS011;19640;50.944;5.260;2023-03-13T00:34:25;16.00;;;3.97;;
33268;SDS011;19640;50.944;5.260;2023-03-13T00:36:51;17.75;;;3.13;;
33268;SDS011;19640;50.944;5.260;2023-03-13T00:39:18;11.15;;;2.00;;
33268;SDS011;19640;50.944;5.260;2023-03-13T00:41:44;12.98;;;2.22;;
33268;SDS011;19640;50.944;5.260;2023-03-13T00:44:10;10.80;;;2.28;;
33268;SDS011;19640;50.944;5.260;2023-03-13T00:46:36;7.57;;;2.03;;
33268;SDS011;19640;50.944;5.260;2023-03-13T00:49:02;10.02;;;2.53;;
33268;SDS011;19640;50.944;5.260;2023-03-13T00:51:28;19.40;;;2.20;;
33268;SDS011;19640;50.944;5.260;2023-03-13T00:53:55;9.02;;;2.35;;
33268;SDS011;19640;50.944;5.260;2023-03-13T00:56:21;13.20;;;1.98;;
33268;SDS011;19640;50.944;5.260;2023-03-13T00:58:48;9.05;;;2.00;;
33268;SDS011;19640;50.944;5.260;2023-03-13T01:03:57;13.00;;;2.30;;
33268;SDS011;19640;50.944;5.260;2023-03-13T01:06:25;8.02;;;1.90;;
33268;SDS011;19640;50.944;5.260;2023-03-13T01:08:53;9.05;;;1.58;;
33268;SDS011;19640;50.944;5.260;2023-03-13T01:11:20;14.63;;;2.05;;
33268;SDS011;19640;50.944;5.260;2023-03-13T01:13:48;7.78;;;2.00;;
33268;SDS011;19640;50.944;5.260;2023-03-13T01:16:18;10.60;;;2.08;;
33268;SDS011;19640;50.944;5.260;2023-03-13T01:18:46;8.25;;;1.40;;
33268;SDS011;19640;50.944;5.260;2023-03-13T01:21:14;9.48;;;1.80;;
33268;SDS011;19640;50.944;5.260;2023-03-13T01:23:40;5.80;;;1.35;;
33268;SDS011;19640;50.944;5.260;2023-03-13T01:26:06;8.23;;;1.52;;
33268;SDS011;19640;50.944;5.260;2023-03-13T01:28:33;10.93;;;2.30;;
33268;SDS011;19640;50.944;5.260;2023-03-13T01:30:59;6.38;;;1.60;;
33268;SDS011;19640;50.944;5.260;2023-03-13T01:33:25;5.50;;;1.50;;
33268;SDS011;19640;50.944;5.260;2023-03-13T01:35:51;10.18;;;1.60;;
33268;SDS011;19640;50.944;5.260;2023-03-13T01:38:24;7.22;;;1.58;;
33268;SDS011;19640;50.944;5.260;2023-03-13T01:40:50;3.50;;;1.42;;
33268;SDS011;19640;50.944;5.260;2023-03-13T01:43:20;7.03;;;1.20;;
33268;SDS011;19640;50.944;5.260;2023-03-13T01:53:54;5.03;;;1.60;;
33268;SDS011;19640;50.944;5.260;2023-03-13T01:56:31;3.42;;;2.42;;
33268;SDS011;19640;50.944;5.260;2023-03-13T01:59:03;4.60;;;1.80;;
33268;SDS011;19640;50.944;5.260;2023-03-13T02:01:31;6.55;;;2.38;;
33268;SDS011;19640;50.944;5.260;2023-03-13T02:03:58;5.93;;;2.28;;
33268;SDS011;19640;50.944;5.260;2023-03-13T02:06:24;3.13;;;2.08;;
33268;SDS011;19640;50.944;5.260;2023-03-13T02:08:55;7.00;;;2.65;;
33268;SDS011;19640;50.944;5.260;2023-03-13T02:11:28;3.35;;;2.55;;
33268;SDS011;19640;50.944;5.260;2023-03-13T02:14:01;6.68;;;2.90;;
33268;SDS011;19640;50.944;5.260;2023-03-13T02:16:29;4.97;;;3.53;;
33268;SDS011;19640;50.944;5.260;2023-03-13T02:18:57;5.57;;;3.80;;
33268;SDS011;19640;50.944;5.260;2023-03-13T02:21:25;7.35;;;3.45;;
33268;SDS011;19640;50.944;5.260;2023-03-13T02:26:50;5.38;;;4.05;;
33268;SDS011;19640;50.944;5.260;2023-03-13T02:29:16;4.85;;;3.72;;
33268;SDS011;19640;50.944;5.260;2023-03-13T02:31:43;4.45;;;4.00;;
33268;SDS011;19640;50.944;5.260;2023-03-13T02:34:10;11.60;;;4.75;;
33268;SDS011;19640;50.944;5.260;2023-03-13T02:36:43;7.03;;;4.25;;
33268;SDS011;19640;50.944;5.260;2023-03-13T02:39:10;5.57;;;4.70;;
33268;SDS011;19640;50.944;5.260;2023-03-13T02:41:38;5.18;;;4.68;;
33268;SDS011;19640;50.944;5.260;2023-03-13T02:44:06;6.00;;;5.40;;
33268;SDS011;19640;50.944;5.260;2023-03-13T02:46:42;8.25;;;5.90;;
33268;SDS011;19640;50.944;5.260;2023-03-13T02:49:20;7.38;;;5.57;;
33268;SDS011;19640;50.944;5.260;2023-03-13T02:51:46;6.75;;;5.78;;
33268;SDS011;19640;50.944;5.260;2023-03-13T02:54:13;6.82;;;4.85;;
33268;SDS011;19640;50.944;5.260;2023-03-13T02:56:44;7.68;;;5.55;;
33268;SDS011;19640;50.944;5.260;2023-03-13T02:59:13;6.85;;;4.95;;
33268;SDS011;19640;50.944;5.260;2023-03-13T03:01:39;6.70;;;5.15;;
33268;SDS011;19640;50.944;5.260;2023-03-13T03:04:04;4.90;;;4.28;;
33268;SDS011;19640;50.944;5.260;2023-03-13T03:06:30;5.88;;;4.38;;
33268;SDS011;19640;50.944;5.260;2023-03-13T03:08:56;5.35;;;4.85;;
33268;SDS011;19640;50.944;5.260;2023-03-13T03:11:22;4.68;;;4.15;;
33268;SDS011;19640;50.944;5.260;2023-03-13T03:13:48;4.80;;;4.07;;
33268;SDS011;19640;50.944;5.260;2023-03-13T03:16:13;5.00;;;3.63;;
33268;SDS011;19640;50.944;5.260;2023-03-13T03:18:42;5.80;;;3.97;;
33268;SDS011;19640;50.944;5.260;2023-03-13T03:21:08;4.43;;;3.80;;
33268;SDS011;19640;50.944;5.260;2023-03-13T03:23:34;4.43;;;4.03;;
33268;SDS011;19640;50.944;5.260;2023-03-13T03:26:00;5.50;;;3.85;;
33268;SDS011;19640;50.944;5.260;2023-03-13T03:28:28;9.15;;;4.03;;
33268;SDS011;19640;50.944;5.260;2023-03-13T03:30:53;4.82;;;3.95;;
33268;SDS011;19640;50.944;5.260;2023-03-13T03:33:20;4.50;;;3.95;;
33268;SDS011;19640;50.944;5.260;2023-03-13T03:35:46;4.75;;;3.50;;
33268;SDS011;19640;50.944;5.260;2023-03-13T03:38:11;4.65;;;3.63;;
33268;SDS011;19640;50.944;5.260;2023-03-13T03:40:37;4.15;;;3.47;;
33268;SDS011;19640;50.944;5.260;2023-03-13T03:43:03;3.90;;;3.42;;
33268;SDS011;19640;50.944;5.260;2023-03-13T03:45:28;4.60;;;3.35;;
33268;SDS011;19640;50.944;5.260;2023-03-13T03:47:54;5.05;;;3.60;;
33268;SDS011;19640;50.944;5.260;2023-03-13T03:50:23;3.65;;;3.10;;
33268;SDS011;19640;50.944;5.260;2023-03-13T03:52:49;4.35;;;2.83;;
33268;SDS011;19640;50.944;5.260;2023-03-13T03:55:15;3.55;;;2.55;;
33268;SDS011;19640;50.944;5.260;2023-03-13T03:57:41;4.75;;;2.97;;
33268;SDS011;19640;50.944;5.260;2023-03-13T04:00:07;3.22;;;2.88;;
33268;SDS011;19640;50.944;5.260;2023-03-13T04:02:36;3.40;;;2.78;;
33268;SDS011;19640;50.944;5.260;2023-03-13T04:05:02;2.63;;;2.42;;
33268;SDS011;19640;50.944;5.260;2023-03-13T04:07:28;5.03;;;2.72;;
33268;SDS011;19640;50.944;5.260;2023-03-13T04:09:54;4.63;;;2.47;;
33268;SDS011;19640;50.944;5.260;2023-03-13T04:12:20;3.85;;;2.80;;
33268;SDS011;19640;50.944;5.260;2023-03-13T04:14:46;2.58;;;2.22;;
33268;SDS011;19640;50.944;5.260;2023-03-13T04:17:11;3.28;;;2.40;;
33268;SDS011;19640;50.944;5.260;2023-03-13T04:19:37;2.78;;;2.30;;
33268;SDS011;19640;50.944;5.260;2023-03-13T04:22:02;4.28;;;2.60;;
33268;SDS011;19640;50.944;5.260;2023-03-13T04:24:28;3.22;;;2.53;;
33268;SDS011;19640;50.944;5.260;2023-03-13T04:26:54;4.35;;;2.20;;
33268;SDS011;19640;50.944;5.260;2023-03-13T04:29:19;2.90;;;2.60;;
33268;SDS011;19640;50.944;5.260;2023-03-13T04:31:45;2.72;;;2.25;;
33268;SDS011;19640;50.944;5.260;2023-03-13T04:34:11;3.03;;;2.22;;
33268;SDS011;19640;50.944;5.260;2023-03-13T04:36:36;3.45;;;2.40;;
33268;SDS011;19640;50.944;5.260;2023-03-13T04:39:02;3.25;;;1.95;;
33268;SDS011;19640;50.944;5.260;2023-03-13T04:41:28;6.32;;;2.05;;
33268;SDS011;19640;50.944;5.260;2023-03-13T04:43:53;2.60;;;2.08;;
33268;SDS011;19640;50.944;5.260;2023-03-13T04:46:19;2.22;;;1.60;;
33268;SDS011;19640;50.944;5.260;2023-03-13T04:48:45;3.75;;;1.88;;
33268;SDS011;19640;50.944;5.260;2023-03-13T04:51:11;4.45;;;1.73;;
33268;SDS011;19640;50.944;5.260;2023-03-13T04:53:36;6.57;;;2.00;;
33268;SDS011;19640;50.944;5.260;2023-03-13T04:56:02;3.42;;;2.00;;
33268;SDS011;19640;50.944;5.260;2023-03-13T04:58:28;3.15;;;1.80;;
33268;SDS011;19640;50.944;5.260;2023-03-13T05:00:54;3.50;;;2.15;;
33268;SDS011;19640;50.944;5.260;2023-03-13T05:03:21;2.40;;;1.70;;
33268;SDS011;19640;50.944;5.260;2023-03-13T05:05:47;3.85;;;1.65;;
33268;SDS011;19640;50.944;5.260;2023-03-13T05:08:12;1.80;;;1.45;;
33268;SDS011;19640;50.944;5.260;2023-03-13T05:10:38;4.25;;;1.80;;
33268;SDS011;19640;50.944;5.260;2023-03-13T05:13:06;2.05;;;1.70;;
33268;SDS011;19640;50.944;5.260;2023-03-13T05:15:32;3.38;;;1.88;;
33268;SDS011;19640;50.944;5.260;2023-03-13T05:17:58;4.55;;;1.92;;
33268;SDS011;19640;50.944;5.260;2023-03-13T05:20:24;4.03;;;1.50;;
33268;SDS011;19640;50.944;5.260;2023-03-13T05:22:49;3.28;;;1.92;;
33268;SDS011;19640;50.944;5.260;2023-03-13T05:25:15;4.55;;;2.08;;
33268;SDS011;19640;50.944;5.260;2023-03-13T05:27:41;2.83;;;1.90;;
33268;SDS011;19640;50.944;5.260;2023-03-13T05:30:06;3.30;;;1.67;;
33268;SDS011;19640;50.944;5.260;2023-03-13T05:32:33;3.38;;;1.42;;
33268;SDS011;19640;50.944;5.260;2023-03-13T05:34:58;2.53;;;1.80;;
33268;SDS011;19640;50.944;5.260;2023-03-13T05:37:24;5.22;;;2.00;;
33268;SDS011;19640;50.944;5.260;2023-03-13T05:39:49;2.33;;;1.67;;
33268;SDS011;19640;50.944;5.260;2023-03-13T05:42:15;3.00;;;1.35;;
33268;SDS011;19640;50.944;5.260;2023-03-13T05:44:41;4.55;;;1.92;;
33268;SDS011;19640;50.944;5.260;2023-03-13T05:47:06;4.55;;;1.73;;
33268;SDS011;19640;50.944;5.260;2023-03-13T05:49:32;3.25;;;1.60;;
33268;SDS011;19640;50.944;5.260;2023-03-13T05:51:57;2.95;;;1.50;;
33268;SDS011;19640;50.944;5.260;2023-03-13T05:54:23;3.55;;;1.88;;
33268;SDS011;19640;50.944;5.260;2023-03-13T05:56:49;3.08;;;1.90;;
33268;SDS011;19640;50.944;5.260;2023-03-13T05:59:16;2.78;;;1.45;;
33268;SDS011;19640;50.944;5.260;2023-03-13T06:01:41;3.10;;;1.65;;
33268;SDS011;19640;50.944;5.260;2023-03-13T06:04:07;2.22;;;1.42;;
33268;SDS011;19640;50.944;5.260;2023-03-13T06:06:33;4.22;;;1.65;;
33268;SDS011;19640;50.944;5.260;2023-03-13T06:08:59;6.68;;;2.20;;
33268;SDS011;19640;50.944;5.260;2023-03-13T06:11:24;4.22;;;1.60;;
33268;SDS011;19640;50.944;5.260;2023-03-13T06:13:50;4.85;;;1.48;;
33268;SDS011;19640;50.944;5.260;2023-03-13T06:16:17;7.72;;;1.80;;
33268;SDS011;19640;50.944;5.260;2023-03-13T06:18:43;6.63;;;1.73;;
33268;SDS011;19640;50.944;5.260;2023-03-13T06:21:09;4.95;;;1.90;;
33268;SDS011;19640;50.944;5.260;2023-03-13T06:23:35;4.47;;;1.40;;
33268;SDS011;19640;50.944;5.260;2023-03-13T06:26:01;5.70;;;2.00;;
33268;SDS011;19640;50.944;5.260;2023-03-13T06:28:27;2.83;;;1.25;;
33268;SDS011;19640;50.944;5.260;2023-03-13T06:30:53;5.50;;;1.30;;
33268;SDS011;19640;50.944;5.260;2023-03-13T06:33:19;2.05;;;0.95;;
33268;SDS011;19640;50.944;5.260;2023-03-13T06:35:45;5.63;;;1.48;;
33268;SDS011;19640;50.944;5.260;2023-03-13T06:38:11;2.78;;;1.38;;
33268;SDS011;19640;50.944;5.260;2023-03-13T06:40:36;4.82;;;1.98;;
33268;SDS011;19640;50.944;5.260;2023-03-13T06:43:02;7.32;;;2.47;;
33268;SDS011;19640;50.944;5.260;2023-03-13T06:45:27;4.05;;;1.40;;
33268;SDS011;19640;50.944;5.260;2023-03-13T06:47:53;4.50;;;1.52;;
33268;SDS011;19640;50.944;5.260;2023-03-13T06:50:19;7.82;;;2.47;;
33268;SDS011;19640;50.944;5.260;2023-03-13T06:52:45;4.13;;;1.60;;
33268;SDS011;19640;50.944;5.260;2023-03-13T06:55:12;2.55;;;1.15;;
33268;SDS011;19640;50.944;5.260;2023-03-13T06:57:37;7.55;;;1.85;;
33268;SDS011;19640;50.944;5.260;2023-03-13T07:00:03;7.75;;;2.20;;
33268;SDS011;19640;50.944;5.260;2023-03-13T07:02:30;4.85;;;1.83;;
33268;SDS011;19640;50.944;5.260;2023-03-13T07:04:56;4.00;;;1.63;;
33268;SDS011;19640;50.944;5.260;2023-03-13T07:07:22;6.55;;;1.92;;
33268;SDS011;19640;50.944;5.260;2023-03-13T07:09:47;4.75;;;1.80;;
33268;SDS011;19640;50.944;5.260;2023-03-13T07:12:13;6.28;;;1.65;;
33268;SDS011;19640;50.944;5.260;2023-03-13T07:14:39;3.47;;;1.50;;
33268;SDS011;19640;50.944;5.260;2023-03-13T07:17:05;5.13;;;2.10;;
33268;SDS011;19640;50.944;5.260;2023-03-13T07:19:30;4.40;;;1.60;;
33268;SDS011;19640;50.944;5.260;2023-03-13T07:21:56;4.63;;;1.60;;
33268;SDS011;19640;50.944;5.260;2023-03-13T07:24:22;3.60;;;1.70;;
33268;SDS011;19640;50.944;5.260;2023-03-13T07:26:47;5.30;;;1.50;;
33268;SDS011;19640;50.944;5.260;2023-03-13T07:29:13;5.57;;;1.80;;
33268;SDS011;19640;50.944;5.260;2023-03-13T07:31:38;3.30;;;1.70;;
33268;SDS011;19640;50.944;5.260;2023-03-13T07:34:04;4.88;;;2.25;;
33268;SDS011;19640;50.944;5.260;2023-03-13T07:36:30;4.55;;;1.60;;
33268;SDS011;19640;50.944;5.260;2023-03-13T07:38:55;7.15;;;1.92;;
33268;SDS011;19640;50.944;5.260;2023-03-13T07:41:21;3.85;;;1.88;;
33268;SDS011;19640;50.944;5.260;2023-03-13T07:43:47;5.55;;;1.95;;
33268;SDS011;19640;50.944;5.260;2023-03-13T07:46:14;5.00;;;2.53;;
33268;SDS011;19640;50.944;5.260;2023-03-13T07:48:45;6.63;;;1.95;;
33268;SDS011;19640;50.944;5.260;2023-03-13T07:51:13;4.57;;;1.75;;
33268;SDS011;19640;50.944;5.260;2023-03-13T07:53:43;8.23;;;1.80;;
33268;SDS011;19640;50.944;5.260;2023-03-13T07:56:12;5.75;;;1.42;;
33268;SDS011;19640;50.944;5.260;2023-03-13T07:58:40;2.63;;;1.60;;
33268;SDS011;19640;50.944;5.260;2023-03-13T08:01:19;6.78;;;1.80;;
33268;SDS011;19640;50.944;5.260;2023-03-13T08:03:47;5.22;;;1.60;;
33268;SDS011;19640;50.944;5.260;2023-03-13T08:06:17;4.65;;;1.85;;
33268;SDS011;19640;50.944;5.260;2023-03-13T08:08:48;4.47;;;1.50;;
33268;SDS011;19640;50.944;5.260;2023-03-13T08:11:16;4.80;;;1.40;;
33268;SDS011;19640;50.944;5.260;2023-03-13T08:13:43;10.55;;;2.15;;
33268;SDS011;19640;50.944;5.260;2023-03-13T08:16:13;6.25;;;1.65;;
33268;SDS011;19640;50.944;5.260;2023-03-13T08:18:41;5.78;;;1.77;;
33268;SDS011;19640;50.944;5.260;2023-03-13T08:21:10;3.75;;;1.90;;
33268;SDS011;19640;50.944;5.260;2023-03-13T08:23:44;3.00;;;1.38;;
33268;SDS011;19640;50.944;5.260;2023-03-13T08:26:14;8.25;;;1.95;;
33268;SDS011;19640;50.944;5.260;2023-03-13T08:28:41;3.95;;;1.65;;
33268;SDS011;19640;50.944;5.260;2023-03-13T08:31:09;5.90;;;1.60;;
33268;SDS011;19640;50.944;5.260;2023-03-13T08:33:40;6.50;;;1.70;;
33268;SDS011;19640;50.944;5.260;2023-03-13T08:36:12;3.25;;;1.63;;
33268;SDS011;19640;50.944;5.260;2023-03-13T08:38:41;6.38;;;1.60;;
33268;SDS011;19640;50.944;5.260;2023-03-13T08:41:08;7.32;;;1.38;;
33268;SDS011;19640;50.944;5.260;2023-03-13T08:43:35;4.68;;;1.95;;
33268;SDS011;19640;50.944;5.260;2023-03-13T08:46:01;3.33;;;1.63;;
33268;SDS011;19640;50.944;5.260;2023-03-13T08:48:27;6.68;;;1.63;;
33268;SDS011;19640;50.944;5.260;2023-03-13T08:51:02;3.03;;;1.70;;
33268;SDS011;19640;50.944;5.260;2023-03-13T08:53:30;3.72;;;1.58;;
33268;SDS011;19640;50.944;5.260;2023-03-13T08:55:56;4.13;;;1.70;;
33268;SDS011;19640;50.944;5.260;2023-03-13T08:58:22;6.22;;;1.67;;
33268;SDS011;19640;50.944;5.260;2023-03-13T09:00:48;3.83;;;1.67;;
33268;SDS011;19640;50.944;5.260;2023-03-13T09:03:14;2.17;;;1.27;;
33268;SDS011;19640;50.944;5.260;2023-03-13T09:05:39;4.95;;;1.40;;
33268;SDS011;19640;50.944;5.260;2023-03-13T09:08:05;2.92;;;1.55;;
33268;SDS011;19640;50.944;5.260;2023-03-13T09:10:34;3.70;;;1.85;;
33268;SDS011;19640;50.944;5.260;2023-03-13T09:13:00;3.05;;;1.30;;
33268;SDS011;19640;50.944;5.260;2023-03-13T09:15:26;4.93;;;1.30;;
33268;SDS011;19640;50.944;5.260;2023-03-13T09:17:52;4.40;;;1.35;;
33268;SDS011;19640;50.944;5.260;2023-03-13T09:20:18;2.80;;;1.40;;
33268;SDS011;19640;50.944;5.260;2023-03-13T09:22:44;5.40;;;1.08;;
33268;SDS011;19640;50.944;5.260;2023-03-13T09:25:10;2.95;;;1.33;;
33268;SDS011;19640;50.944;5.260;2023-03-13T09:27:37;2.63;;;1.40;;
33268;SDS011;19640;50.944;5.260;2023-03-13T09:30:03;1.83;;;1.10;;
33268;SDS011;19640;50.944;5.260;2023-03-13T09:32:29;4.63;;;1.55;;
33268;SDS011;19640;50.944;5.260;2023-03-13T09:34:54;3.53;;;1.20;;
33268;SDS011;19640;50.944;5.260;2023-03-13T09:37:20;1.48;;;1.15;;
33268;SDS011;19640;50.944;5.260;2023-03-13T09:39:47;2.97;;;1.67;;
33268;SDS011;19640;50.944;5.260;2023-03-13T09:42:14;2.15;;;1.25;;
33268;SDS011;19640;50.944;5.260;2023-03-13T09:47:44;1.80;;;1.20;;
33268;SDS011;19640;50.944;5.260;2023-03-13T09:50:26;2.10;;;1.00;;
33268;SDS011;19640;50.944;5.260;2023-03-13T09:52:59;3.25;;;1.27;;
33268;SDS011;19640;50.944;5.260;2023-03-13T09:55:42;4.65;;;1.30;;
33268;SDS011;19640;50.944;5.260;2023-03-13T10:00:53;6.95;;;1.23;;
33268;SDS011;19640;50.944;5.260;2023-03-13T10:03:26;2.63;;;1.33;;
33268;SDS011;19640;50.944;5.260;2023-03-13T10:06:21;2.33;;;1.00;;
33268;SDS011;19640;50.944;5.260;2023-03-13T10:08:59;2.90;;;0.82;;
33268;SDS011;19640;50.944;5.260;2023-03-13T10:11:37;2.33;;;1.00;;
33268;SDS011;19640;50.944;5.260;2023-03-13T10:19:33;1.50;;;1.17;;
33268;SDS011;19640;50.944;5.260;2023-03-13T10:22:24;2.22;;;0.80;;
33268;SDS011;19640;50.944;5.260;2023-03-13T10:24:57;1.58;;;1.27;;
33268;SDS011;19640;50.944;5.260;2023-03-13T10:27:26;2.72;;;1.00;;
33268;SDS011;19640;50.944;5.260;2023-03-13T10:29:52;5.22;;;1.00;;
33268;SDS011;19640;50.944;5.260;2023-03-13T10:32:18;2.20;;;0.80;;
33268;SDS011;19640;50.944;5.260;2023-03-13T10:34:58;1.05;;;0.52;;
33268;SDS011;19640;50.944;5.260;2023-03-13T10:37:32;0.88;;;0.63;;
33268;SDS011;19640;50.944;5.260;2023-03-13T10:40:25;1.63;;;0.90;;
33268;SDS011;19640;50.944;5.260;2023-03-13T10:42:53;1.13;;;0.57;;
33268;SDS011;19640;50.944;5.260;2023-03-13T10:45:26;1.00;;;0.70;;
33268;SDS011;19640;50.944;5.260;2023-03-13T10:48:01;1.83;;;0.82;;
33268;SDS011;19640;50.944;5.260;2023-03-13T10:50:35;3.35;;;0.70;;
33268;SDS011;19640;50.944;5.260;2023-03-13T10:55:44;1.50;;;0.80;;
33268;SDS011;19640;50.944;5.260;2023-03-13T10:58:16;1.27;;;0.70;;
33268;SDS011;19640;50.944;5.260;2023-03-13T11:00:47;3.88;;;0.70;;
33268;SDS011;19640;50.944;5.260;2023-03-13T11:03:25;0.88;;;0.52;;
33268;SDS011;19640;50.944;5.260;2023-03-13T11:05:57;1.25;;;0.70;;
33268;SDS011;19640;50.944;5.260;2023-03-13T11:08:25;1.58;;;0.85;;
33268;SDS011;19640;50.944;5.260;2023-03-13T11:11:01;1.23;;;0.70;;
33268;SDS011;19640;50.944;5.260;2023-03-13T11:16:11;3.42;;;0.80;;
33268;SDS011;19640;50.944;5.260;2023-03-13T11:24:09;2.70;;;0.50;;
33268;SDS011;19640;50.944;5.260;2023-03-13T11:26:49;0.95;;;0.50;;
33268;SDS011;19640;50.944;5.260;2023-03-13T11:29:53;0.82;;;0.50;;
33268;SDS011;19640;50.944;5.260;2023-03-13T11:33:16;0.85;;;0.50;;
33268;SDS011;19640;50.944;5.260;2023-03-13T11:35:20;3.20;;;0.60;;
33268;SDS011;19640;50.944;5.260;2023-03-13T11:37:55;0.80;;;0.50;;
33268;SDS011;19640;50.944;5.260;2023-03-13T11:40:35;0.88;;;0.57;;
33268;SDS011;19640;50.944;5.260;2023-03-13T11:43:09;0.55;;;0.40;;
33268;SDS011;19640;50.944;5.260;2023-03-13T11:52:11;4.75;;;0.63;;
33268;SDS011;19640;50.944;5.260;2023-03-13T11:56:56;1.88;;;0.47;;
33268;SDS011;19640;50.944;5.260;2023-03-13T11:59:39;1.30;;;0.52;;
33268;SDS011;19640;50.944;5.260;2023-03-13T12:05:00;0.50;;;0.50;;
33268;SDS011;19640;50.944;5.260;2023-03-13T12:07:42;0.52;;;0.50;;
33268;SDS011;19640;50.944;5.260;2023-03-13T12:10:22;0.93;;;0.40;;
33268;SDS011;19640;50.944;5.260;2023-03-13T12:15:27;1.77;;;0.60;;
33268;SDS011;19640;50.944;5.260;2023-03-13T12:26:13;2.17;;;0.90;;
33268;SDS011;19640;50.944;5.260;2023-03-13T12:39:33;0.95;;;0.40;;
33268;SDS011;19640;50.944;5.260;2023-03-13T12:44:51;1.33;;;0.50;;
33268;SDS011;19640;50.944;5.260;2023-03-13T12:47:22;1.05;;;0.50;;
33268;SDS011;19640;50.944;5.260;2023-03-13T12:50:07;2.72;;;0.50;;
33268;SDS011;19640;50.944;5.260;2023-03-13T13:00:38;0.80;;;0.40;;
33268;SDS011;19640;50.944;5.260;2023-03-13T13:03:14;0.38;;;0.35;;
33268;SDS011;19640;50.944;5.260;2023-03-13T13:06:07;2.83;;;0.55;;
33268;SDS011;19640;50.944;5.260;2023-03-13T13:16:41;0.70;;;0.60;;
33268;SDS011;19640;50.944;5.260;2023-03-13T13:24:54;2.47;;;0.60;;
33268;SDS011;19640;50.944;5.260;2023-03-13T13:29:59;0.50;;;0.40;;
33268;SDS011;19640;50.944;5.260;2023-03-13T13:32:29;1.23;;;0.60;;
33268;SDS011;19640;50.944;5.260;2023-03-13T13:43:30;2.17;;;0.50;;
33268;SDS011;19640;50.944;5.260;2023-03-13T13:45:59;1.75;;;0.55;;
33268;SDS011;19640;50.944;5.260;2023-03-13T13:53:43;0.90;;;0.70;;
33268;SDS011;19640;50.944;5.260;2023-03-13T14:01:27;2.88;;;0.77;;
33268;SDS011;19640;50.944;5.260;2023-03-13T14:03:56;1.50;;;0.52;;
33268;SDS011;19640;50.944;5.260;2023-03-13T14:06:30;3.92;;;0.82;;
33268;SDS011;19640;50.944;5.260;2023-03-13T14:09:21;1.05;;;0.50;;
33268;SDS011;19640;50.944;5.260;2023-03-13T14:12:23;2.75;;;0.70;;
33268;SDS011;19640;50.944;5.260;2023-03-13T14:15:09;3.15;;;0.50;;
33268;SDS011;19640;50.944;5.260;2023-03-13T14:17:47;0.98;;;0.57;;
33268;SDS011;19640;50.944;5.260;2023-03-13T14:20:17;3.65;;;0.80;;
33268;SDS011;19640;50.944;5.260;2023-03-13T14:22:47;4.25;;;0.80;;
33268;SDS011;19640;50.944;5.260;2023-03-13T14:25:14;1.90;;;0.60;;
33268;SDS011;19640;50.944;5.260;2023-03-13T14:27:43;2.50;;;0.70;;
33268;SDS011;19640;50.944;5.260;2023-03-13T14:30:10;3.67;;;0.80;;
33268;SDS011;19640;50.944;5.260;2023-03-13T14:32:39;1.08;;;0.60;;
33268;SDS011;19640;50.944;5.260;2023-03-13T14:35:05;1.95;;;0.80;;
33268;SDS011;19640;50.944;5.260;2023-03-13T14:37:34;3.78;;;0.88;;
33268;SDS011;19640;50.944;5.260;2023-03-13T14:40:08;2.20;;;0.70;;
33268;SDS011;19640;50.944;5.260;2023-03-13T14:42:47;3.38;;;0.73;;
33268;SDS011;19640;50.944;5.260;2023-03-13T14:45:19;2.15;;;0.70;;
33268;SDS011;19640;50.944;5.260;2023-03-13T14:47:53;1.95;;;0.70;;
33268;SDS011;19640;50.944;5.260;2023-03-13T14:50:22;2.88;;;0.70;;
33268;SDS011;19640;50.944;5.260;2023-03-13T14:52:53;3.70;;;0.93;;
33268;SDS011;19640;50.944;5.260;2023-03-13T14:55:28;1.20;;;0.60;;
33268;SDS011;19640;50.944;5.260;2023-03-13T15:08:18;2.50;;;1.00;;
33268;SDS011;19640;50.944;5.260;2023-03-13T15:10:45;2.58;;;0.75;;
33268;SDS011;19640;50.944;5.260;2023-03-13T15:13:55;2.55;;;0.80;;
33268;SDS011;19640;50.944;5.260;2023-03-13T15:16:02;3.65;;;0.88;;
33268;SDS011;19640;50.944;5.260;2023-03-13T15:18:37;3.65;;;0.90;;
33268;SDS011;19640;50.944;5.260;2023-03-13T15:23:38;2.80;;;0.90;;
33268;SDS011;19640;50.944;5.260;2023-03-13T15:26:04;3.60;;;0.90;;
33268;SDS011;19640;50.944;5.260;2023-03-13T15:28:30;1.90;;;0.80;;
33268;SDS011;19640;50.944;5.260;2023-03-13T15:30:56;2.90;;;0.75;;
33268;SDS011;19640;50.944;5.260;2023-03-13T15:33:22;3.30;;;0.73;;
33268;SDS011;19640;50.944;5.260;2023-03-13T15:35:51;3.15;;;0.90;;
33268;SDS011;19640;50.944;5.260;2023-03-13T15:38:21;4.95;;;0.80;;
33268;SDS011;19640;50.944;5.260;2023-03-13T15:40:48;2.70;;;0.70;;
33268;SDS011;19640;50.944;5.260;2023-03-13T15:43:14;2.60;;;0.85;;
33268;SDS011;19640;50.944;5.260;2023-03-13T15:45:42;2.03;;;0.73;;
33268;SDS011;19640;50.944;5.260;2023-03-13T15:48:16;2.58;;;1.05;;
33268;SDS011;19640;50.944;5.260;2023-03-13T15:50:44;2.60;;;0.90;;
33268;SDS011;19640;50.944;5.260;2023-03-13T15:53:20;3.58;;;0.98;;
33268;SDS011;19640;50.944;5.260;2023-03-13T15:55:48;7.72;;;0.93;;
33268;SDS011;19640;50.944;5.260;2023-03-13T15:58:15;3.40;;;0.90;;
33268;SDS011;19640;50.944;5.260;2023-03-13T16:00:41;2.15;;;0.95;;
33268;SDS011;19640;50.944;5.260;2023-03-13T16:03:29;2.88;;;0.80;;
33268;SDS011;19640;50.944;5.260;2023-03-13T16:05:55;2.17;;;0.80;;
33268;SDS011;19640;50.944;5.260;2023-03-13T16:08:25;3.25;;;0.70;;
33268;SDS011;19640;50.944;5.260;2023-03-13T16:10:52;1.77;;;0.80;;
33268;SDS011;19640;50.944;5.260;2023-03-13T16:13:18;2.80;;;0.70;;
33268;SDS011;19640;50.944;5.260;2023-03-13T16:15:44;2.92;;;1.00;;
33268;SDS011;19640;50.944;5.260;2023-03-13T16:18:21;2.28;;;0.65;;
33268;SDS011;19640;50.944;5.260;2023-03-13T16:20:48;3.58;;;0.98;;
33268;SDS011;19640;50.944;5.260;2023-03-13T16:23:15;2.65;;;0.73;;
33268;SDS011;19640;50.944;5.260;2023-03-13T16:25:41;2.85;;;0.82;;
33268;SDS011;19640;50.944;5.260;2023-03-13T16:28:10;6.57;;;0.90;;
33268;SDS011;19640;50.944;5.260;2023-03-13T16:30:37;4.30;;;0.70;;
33268;SDS011;19640;50.944;5.260;2023-03-13T16:33:07;4.20;;;1.10;;
33268;SDS011;19640;50.944;5.260;2023-03-13T16:35:33;2.70;;;1.20;;
33268;SDS011;19640;50.944;5.260;2023-03-13T16:38:00;2.80;;;0.90;;
33268;SDS011;19640;50.944;5.260;2023-03-13T16:40:34;5.70;;;0.90;;
33268;SDS011;19640;50.944;5.260;2023-03-13T16:43:00;3.17;;;1.08;;
33268;SDS011;19640;50.944;5.260;2023-03-13T16:45:26;3.72;;;0.90;;
33268;SDS011;19640;50.944;5.260;2023-03-13T16:47:52;6.88;;;1.55;;
33268;SDS011;19640;50.944;5.260;2023-03-13T16:50:20;3.67;;;0.90;;
33268;SDS011;19640;50.944;5.260;2023-03-13T16:52:57;4.05;;;1.15;;
33268;SDS011;19640;50.944;5.260;2023-03-13T16:55:23;1.38;;;0.90;;
33268;SDS011;19640;50.944;5.260;2023-03-13T16:57:52;5.50;;;1.40;;
33268;SDS011;19640;50.944;5.260;2023-03-13T17:00:19;4.45;;;0.95;;
33268;SDS011;19640;50.944;5.260;2023-03-13T17:02:47;6.93;;;1.85;;
33268;SDS011;19640;50.944;5.260;2023-03-13T17:05:13;4.68;;;1.00;;